Redding, Connecticut
Current Conditions -  °F | °C
As of 11:35 PM on Monday 26 Jan 2015 (Local Time) from KDXR Reporting Station
Light Snow Light Snow  
Wind Chill: 11°   Ceiling: 2100
Heat Index: 22°   Visibility: 2mi
Dew Point: 16°   Wind: 10mph
Humidity: 78%   Direction: 30°NNE
Pressure: 29.77"   Gusts: 18mph
Location:  41.3°N, 73.38°W
Report Text: KDXR 270335Z AUTO 03009G16KT 010V090 2SM -SN OVC021 M06/M09 A2977 RMK AO2 P0000 T10561089
Loading
Personal Weather Stations






























Interactive Weather Map New forecast layout! Learn more

10-Day Weather Forecast

Advertisements
Track Severe Weather on mobile